createdAt,value
2023-07-08T00:00:17.788Z,3.23
2023-07-08T00:03:04.728Z,2.50
2023-07-08T00:05:58.035Z,2.67
2023-07-08T00:08:44.977Z,3.53
2023-07-08T00:11:32.063Z,3.00
2023-07-08T00:14:18.932Z,2.80
2023-07-08T00:17:11.205Z,2.80
2023-07-08T00:19:58.277Z,3.17
2023-07-08T00:22:48.033Z,3.13
2023-07-08T00:25:35.377Z,2.70
2023-07-08T00:28:23.344Z,3.60
2023-07-08T00:31:12.244Z,2.80
2023-07-08T00:33:59.406Z,2.97
2023-07-08T00:36:46.117Z,2.80
2023-07-08T00:39:34.480Z,3.27
2023-07-08T00:42:25.176Z,2.93
2023-07-08T00:45:24.558Z,2.60
2023-07-08T00:48:18.598Z,2.93
2023-07-08T00:51:06.176Z,2.43
2023-07-08T00:53:53.143Z,2.77
2023-07-08T00:56:45.291Z,3.07
2023-07-08T00:59:35.988Z,2.80
2023-07-08T01:02:26.637Z,3.50
2023-07-08T01:05:17.370Z,2.93
2023-07-08T01:08:07.092Z,3.47
2023-07-08T01:10:59.237Z,3.27
2023-07-08T01:13:49.295Z,2.70
2023-07-08T01:16:36.577Z,2.90
2023-07-08T01:19:33.383Z,3.00
2023-07-08T01:22:22.646Z,3.50
2023-07-08T01:25:11.797Z,3.50
2023-07-08T01:28:00.145Z,3.07
2023-07-08T01:30:47.682Z,3.37
2023-07-08T01:33:35.801Z,3.20
2023-07-08T01:36:25.367Z,3.20
2023-07-08T01:39:20.383Z,2.87
2023-07-08T01:42:07.445Z,3.10
2023-07-08T01:44:54.684Z,2.80
2023-07-08T01:47:43.272Z,3.00
2023-07-08T01:50:31.418Z,2.97
2023-07-08T01:53:20.915Z,3.00
2023-07-08T01:56:10.173Z,2.90
2023-07-08T01:58:57.304Z,3.20
2023-07-08T02:01:44.325Z,3.63
2023-07-08T02:04:31.869Z,3.00
2023-07-08T02:07:19.375Z,2.77
2023-07-08T02:10:06.694Z,3.13
2023-07-08T02:12:54.871Z,2.90
2023-07-08T02:15:41.746Z,2.97
2023-07-08T02:18:29.167Z,3.30
2023-07-08T02:21:19.170Z,2.80
2023-07-08T02:24:07.013Z,2.80
2023-07-08T02:26:53.890Z,3.27
2023-07-08T02:29:42.191Z,2.93
2023-07-08T02:32:31.242Z,3.10
2023-07-08T02:35:18.531Z,3.20
2023-07-08T02:38:05.659Z,2.53
2023-07-08T02:40:53.480Z,2.63
2023-07-08T02:43:40.716Z,2.90
2023-07-08T02:46:29.511Z,2.73
2023-07-08T02:49:16.388Z,2.80
2023-07-08T02:52:03.590Z,3.10
2023-07-08T02:54:50.566Z,3.10
2023-07-08T02:57:37.433Z,2.67
2023-07-08T03:00:24.318Z,2.53
2023-07-08T03:03:12.497Z,3.17
2023-07-08T03:06:00.242Z,2.70
2023-07-08T03:08:47.262Z,3.00
2023-07-08T03:11:33.880Z,2.63
2023-07-08T03:14:20.899Z,2.90
2023-07-08T03:17:08.081Z,2.20
2023-07-08T03:19:56.766Z,3.00
2023-07-08T03:22:43.515Z,2.63
2023-07-08T03:25:30.406Z,2.90
2023-07-08T03:28:17.781Z,2.20
2023-07-08T03:31:04.986Z,2.67
2023-07-08T03:33:52.218Z,1.77
2023-07-08T03:36:49.660Z,2.07
2023-07-08T03:39:36.589Z,1.83
2023-07-08T03:42:23.730Z,2.40
2023-07-08T03:45:11.537Z,1.90
2023-07-08T03:47:58.313Z,2.17
2023-07-08T03:50:48.027Z,2.10
2023-07-08T03:53:36.632Z,1.58
2023-07-08T03:56:23.953Z,1.63
2023-07-08T03:59:10.943Z,1.75
2023-07-08T04:01:58.042Z,2.15
2023-07-08T04:04:45.084Z,1.55
2023-07-08T04:07:31.984Z,1.58
2023-07-08T04:10:20.504Z,1.60
2023-07-08T04:13:07.714Z,1.95
2023-07-08T04:15:59.430Z,1.48
2023-07-08T04:18:46.830Z,1.85
2023-07-08T04:21:33.578Z,1.80
2023-07-08T04:24:20.461Z,1.70
2023-07-08T04:27:15.715Z,1.85
2023-07-08T04:30:04.070Z,2.42
2023-07-08T04:32:52.873Z,1.30
2023-07-08T04:35:40.795Z,1.30
2023-07-08T04:38:28.971Z,1.83
2023-07-08T04:41:16.255Z,1.60
2023-07-08T04:44:04.559Z,1.67
2023-07-08T04:46:55.310Z,1.30
2023-07-08T04:49:45.013Z,1.70
2023-07-08T04:52:32.180Z,1.77
2023-07-08T04:55:19.388Z,1.65
2023-07-08T04:58:06.439Z,1.40
2023-07-08T05:00:54.952Z,1.52
2023-07-08T05:03:42.107Z,1.53
2023-07-08T05:06:29.654Z,1.60
2023-07-08T05:09:17.721Z,1.40
2023-07-08T05:12:05.644Z,1.75
2023-07-08T05:14:52.541Z,1.65
2023-07-08T05:17:41.974Z,2.00
2023-07-08T05:20:29.858Z,1.70
2023-07-08T05:23:16.802Z,1.73
2023-07-08T05:26:03.777Z,1.90
2023-07-08T05:28:51.038Z,2.30
2023-07-08T05:31:47.225Z,2.03
2023-07-08T05:34:37.214Z,1.60
2023-07-08T05:37:26.383Z,1.77
2023-07-08T05:40:13.816Z,1.80
2023-07-08T05:43:00.806Z,1.70
2023-07-08T05:45:58.015Z,1.73
2023-07-08T05:49:00.488Z,1.60
2023-07-08T05:51:50.453Z,2.67
2023-07-08T05:54:37.686Z,1.50
2023-07-08T05:57:25.576Z,1.60
2023-07-08T06:00:14.263Z,2.17
2023-07-08T06:03:03.654Z,1.87
2023-07-08T06:05:51.449Z,1.67
2023-07-08T06:08:40.017Z,1.60
2023-07-08T06:11:26.694Z,1.63
2023-07-08T06:14:13.945Z,1.65
2023-07-08T06:17:01.589Z,1.50
2023-07-08T06:19:48.924Z,1.50
2023-07-08T06:25:27.300Z,1.30
2023-07-08T06:28:14.105Z,1.60
2023-07-08T06:31:01.298Z,1.52
2023-07-08T06:33:48.271Z,2.38
2023-07-08T06:36:36.370Z,1.65
2023-07-08T06:39:23.808Z,2.13
2023-07-08T06:42:12.583Z,1.77
2023-07-08T06:44:59.573Z,1.88
2023-07-08T06:47:47.511Z,1.50
2023-07-08T06:50:34.678Z,1.67
2023-07-08T06:53:21.710Z,1.45
2023-07-08T06:56:09.584Z,1.42
2023-07-08T06:58:58.210Z,1.67
2023-07-08T07:01:45.413Z,1.85
2023-07-08T07:04:33.640Z,1.63
2023-07-08T07:07:20.674Z,1.52
2023-07-08T07:10:09.414Z,1.13
2023-07-08T07:12:56.219Z,1.50
2023-07-08T07:15:44.797Z,1.02
2023-07-08T07:18:32.129Z,1.15
2023-07-08T07:21:19.220Z,1.45
2023-07-08T07:24:08.119Z,1.00
2023-07-08T07:26:55.396Z,1.25
2023-07-08T07:29:45.165Z,1.10
2023-07-08T07:32:35.288Z,1.35
2023-07-08T07:35:22.359Z,1.35
2023-07-08T07:38:09.367Z,1.10
2023-07-08T07:40:56.512Z,0.90
2023-07-08T07:43:43.426Z,0.80
2023-07-08T07:46:30.439Z,1.23
2023-07-08T07:49:18.649Z,1.15
2023-07-08T07:52:07.435Z,1.80
2023-07-08T07:54:55.802Z,1.02
2023-07-08T07:57:47.021Z,0.98
2023-07-08T08:00:34.066Z,0.88
2023-07-08T08:03:22.829Z,1.17
2023-07-08T08:06:11.213Z,1.33
2023-07-08T08:09:00.940Z,1.20
2023-07-08T08:11:47.926Z,1.02
2023-07-08T08:14:34.600Z,1.00
2023-07-08T08:17:21.579Z,0.98
2023-07-08T08:20:09.856Z,0.93
2023-07-08T08:22:58.039Z,0.75
2023-07-08T08:25:45.219Z,1.15
2023-07-08T08:28:32.097Z,1.02
2023-07-08T08:31:19.022Z,1.00
2023-07-08T08:34:05.810Z,0.90
2023-07-08T08:36:56.792Z,1.00
2023-07-08T08:39:45.085Z,0.90
2023-07-08T08:42:36.337Z,1.00
2023-07-08T08:45:26.623Z,1.00
2023-07-08T08:48:17.756Z,1.20
2023-07-08T08:51:10.159Z,0.80
2023-07-08T08:53:59.803Z,1.17
2023-07-08T08:56:55.883Z,1.02
2023-07-08T08:59:47.637Z,1.10
2023-07-08T09:02:41.665Z,1.05
2023-07-08T09:05:29.204Z,1.17
2023-07-08T09:08:20.648Z,1.00
2023-07-08T09:11:20.770Z,1.40
2023-07-08T09:14:20.357Z,1.13
2023-07-08T09:17:21.102Z,0.80
2023-07-08T09:20:20.202Z,1.08
2023-07-08T09:23:19.565Z,0.88
2023-07-08T09:26:09.830Z,1.05
2023-07-08T09:28:56.562Z,1.20
2023-07-08T09:31:45.364Z,1.20
2023-07-08T09:34:43.236Z,1.10
2023-07-08T09:37:32.554Z,1.08
2023-07-08T09:40:22.144Z,1.27
2023-07-08T09:43:22.111Z,1.00
2023-07-08T09:46:15.044Z,1.23
2023-07-08T09:49:17.533Z,1.20
2023-07-08T09:52:05.140Z,0.90
2023-07-08T09:54:52.298Z,0.90
2023-07-08T09:57:39.636Z,0.95
2023-07-08T10:00:35.111Z,1.20
2023-07-08T10:03:24.776Z,1.20
2023-07-08T10:06:19.648Z,1.10
2023-07-08T10:09:12.756Z,1.10
2023-07-08T10:12:04.161Z,1.10
2023-07-08T10:14:54.739Z,1.30
2023-07-08T10:17:43.571Z,1.08
2023-07-08T10:20:44.172Z,1.15
2023-07-08T10:23:44.785Z,1.20
2023-07-08T10:26:34.054Z,1.10
2023-07-08T10:29:27.066Z,1.10
2023-07-08T10:32:22.568Z,1.20
2023-07-08T10:35:18.410Z,1.00
2023-07-08T10:38:26.108Z,1.00
2023-07-08T10:41:26.429Z,1.35
2023-07-08T10:44:20.670Z,1.58
2023-07-08T10:47:33.112Z,1.60
2023-07-08T10:50:39.440Z,1.25
2023-07-08T10:53:39.070Z,1.10
2023-07-08T10:56:37.386Z,1.05
2023-07-08T10:59:40.778Z,1.30
2023-07-08T11:03:09.956Z,1.10
2023-07-08T11:06:03.192Z,1.38
2023-07-08T11:08:55.610Z,1.17
2023-07-08T11:11:48.932Z,1.13
2023-07-08T11:14:44.685Z,1.30
2023-07-08T11:17:38.803Z,1.20
2023-07-08T11:20:33.397Z,1.30
2023-07-08T11:23:29.078Z,1.05
2023-07-08T11:26:25.216Z,1.10
2023-07-08T11:29:21.854Z,1.10
2023-07-08T11:32:14.383Z,1.33
2023-07-08T11:35:06.057Z,1.40
2023-07-08T11:37:53.357Z,1.20
2023-07-08T11:40:53.480Z,1.23
2023-07-08T11:43:47.414Z,1.20
2023-07-08T11:46:36.650Z,1.20
2023-07-08T11:49:23.568Z,1.40
2023-07-08T11:52:16.634Z,1.40
2023-07-08T11:55:14.819Z,1.70
2023-07-08T11:58:02.854Z,1.52
2023-07-08T12:00:59.705Z,1.70
2023-07-08T12:03:53.438Z,1.40
2023-07-08T12:06:48.448Z,1.80
2023-07-08T12:09:39.973Z,1.55
2023-07-08T12:12:34.845Z,1.70
2023-07-08T12:15:25.234Z,1.65
2023-07-08T12:18:17.359Z,1.60
2023-07-08T12:21:07.083Z,1.77
2023-07-08T12:23:54.027Z,1.63
2023-07-08T12:26:41.936Z,1.73
2023-07-08T12:29:29.230Z,1.52
2023-07-08T12:32:16.594Z,1.70
2023-07-08T12:35:05.278Z,1.80
2023-07-08T12:37:55.485Z,1.60
2023-07-08T12:40:43.470Z,1.90
2023-07-08T12:43:30.426Z,1.75
2023-07-08T12:46:19.471Z,1.45
2023-07-08T12:49:06.673Z,1.85
2023-07-08T12:51:53.500Z,1.80
2023-07-08T12:54:41.721Z,1.73
2023-07-08T12:57:28.699Z,1.50
2023-07-08T13:00:19.175Z,2.17
2023-07-08T13:03:09.275Z,1.73
2023-07-08T13:05:58.259Z,2.00
2023-07-08T13:08:46.293Z,1.60
2023-07-08T13:11:35.018Z,2.00
2023-07-08T13:14:22.600Z,1.80
2023-07-08T13:17:10.555Z,2.17
2023-07-08T13:19:58.626Z,2.05
2023-07-08T13:22:56.372Z,2.35
2023-07-08T13:25:43.697Z,1.90
2023-07-08T13:28:40.776Z,2.05
2023-07-08T13:31:35.088Z,2.05
2023-07-08T13:34:25.626Z,2.28
2023-07-08T13:37:15.732Z,1.58
2023-07-08T13:40:02.557Z,2.17
2023-07-08T13:42:51.607Z,2.10
2023-07-08T13:45:48.721Z,2.25
2023-07-08T13:48:39.869Z,1.80
2023-07-08T13:51:32.290Z,1.98
2023-07-08T13:54:27.642Z,2.10
2023-07-08T13:57:17.780Z,2.50
2023-07-08T14:00:05.542Z,2.10
2023-07-08T14:02:54.248Z,1.90
2023-07-08T14:05:41.656Z,1.90
2023-07-08T14:08:28.604Z,2.10
2023-07-08T14:11:15.672Z,2.10
2023-07-08T14:14:02.900Z,1.77
2023-07-08T14:16:51.703Z,1.77
2023-07-08T14:19:40.329Z,2.03
2023-07-08T14:22:29.014Z,2.42
2023-07-08T14:25:17.962Z,1.95
2023-07-08T14:28:06.955Z,2.00
2023-07-08T14:30:53.942Z,2.33
2023-07-08T14:33:41.608Z,2.40
2023-07-08T14:36:29.931Z,2.67
2023-07-08T14:39:19.301Z,2.00
2023-07-08T14:42:11.365Z,2.22
2023-07-08T14:44:59.049Z,2.15
2023-07-08T14:47:46.020Z,2.25
2023-07-08T14:50:33.311Z,2.00
2023-07-08T14:53:21.361Z,2.25
2023-07-08T14:56:17.710Z,2.45
2023-07-08T14:59:05.381Z,2.10
2023-07-08T15:01:54.015Z,2.20
2023-07-08T15:04:41.055Z,2.55
2023-07-08T15:07:28.220Z,2.38
2023-07-08T15:10:16.783Z,2.28
2023-07-08T15:13:04.424Z,2.33
2023-07-08T15:15:51.692Z,2.38
2023-07-08T15:18:38.859Z,1.98
2023-07-08T15:21:26.151Z,2.33
2023-07-08T15:24:14.667Z,1.88
2023-07-08T15:27:05.687Z,2.30
2023-07-08T15:29:52.731Z,2.33
2023-07-08T15:32:41.462Z,2.58
2023-07-08T15:35:33.508Z,2.75
2023-07-08T15:38:20.622Z,2.50
2023-07-08T15:41:11.494Z,2.13
2023-07-08T15:44:00.028Z,2.03
2023-07-08T15:46:49.683Z,2.38
2023-07-08T15:49:37.013Z,2.30
2023-07-08T15:52:23.803Z,2.42
2023-07-08T15:55:12.286Z,2.63
2023-07-08T15:58:02.744Z,2.10
2023-07-08T16:00:51.674Z,2.33
2023-07-08T16:03:39.291Z,2.40
2023-07-08T16:06:28.590Z,2.20
2023-07-08T16:09:15.658Z,2.47
2023-07-08T16:12:02.630Z,2.28
2023-07-08T16:14:49.382Z,2.30
2023-07-08T16:17:39.582Z,1.88
2023-07-08T16:20:28.970Z,2.25
2023-07-08T16:23:16.401Z,2.42
2023-07-08T16:26:04.972Z,2.35
2023-07-08T16:28:54.596Z,3.10
2023-07-08T16:31:41.528Z,2.55
2023-07-08T16:34:29.653Z,2.65
2023-07-08T16:37:16.550Z,2.97
2023-07-08T16:40:03.993Z,2.28
2023-07-08T16:42:52.423Z,2.40
2023-07-08T16:45:39.342Z,2.50
2023-07-08T16:48:26.375Z,2.20
2023-07-08T16:51:16.660Z,2.50
2023-07-08T16:54:12.683Z,2.42
2023-07-08T16:56:59.543Z,2.55
2023-07-08T16:59:46.578Z,2.05
2023-07-08T17:02:35.906Z,2.35
2023-07-08T17:05:25.903Z,2.22
2023-07-08T17:08:16.630Z,2.47
2023-07-08T17:11:03.414Z,2.20
2023-07-08T17:13:50.551Z,2.60
2023-07-08T17:16:38.272Z,2.10
2023-07-08T17:19:25.458Z,2.30
2023-07-08T17:22:12.611Z,2.47
2023-07-08T17:25:01.020Z,2.40
2023-07-08T17:27:48.195Z,2.40
2023-07-08T17:30:35.956Z,2.33
2023-07-08T17:33:25.964Z,2.80
2023-07-08T17:36:13.779Z,2.30
2023-07-08T17:39:01.484Z,4.03
2023-07-08T17:41:53.832Z,2.78
2023-07-08T17:44:41.545Z,2.15
2023-07-08T17:47:28.446Z,2.67
2023-07-08T17:50:17.973Z,2.30
2023-07-08T17:53:05.113Z,2.15
2023-07-08T17:55:53.328Z,2.28
2023-07-08T17:58:42.067Z,2.47
2023-07-08T18:01:29.164Z,2.47
2023-07-08T18:04:16.309Z,2.35
2023-07-08T18:07:04.050Z,2.33
2023-07-08T18:09:50.816Z,2.30
2023-07-08T18:12:39.148Z,2.20
2023-07-08T18:15:29.602Z,2.45
2023-07-08T18:18:16.525Z,2.40
2023-07-08T18:21:03.444Z,2.40
2023-07-08T18:23:52.148Z,2.40
2023-07-08T18:26:38.977Z,2.40
2023-07-08T18:29:25.708Z,2.97
2023-07-08T18:32:14.890Z,2.50
2023-07-08T18:35:01.664Z,2.45
2023-07-08T18:37:49.017Z,2.33
2023-07-08T18:40:40.487Z,2.28
2023-07-08T18:43:30.901Z,2.30
2023-07-08T18:46:19.635Z,2.15
2023-07-08T18:49:10.667Z,2.80
2023-07-08T18:51:58.019Z,2.38
2023-07-08T18:54:45.172Z,2.60
2023-07-08T18:57:33.489Z,2.60
2023-07-08T19:00:21.875Z,2.38
2023-07-08T19:03:17.654Z,1.90
2023-07-08T19:06:06.437Z,2.95
2023-07-08T19:08:53.927Z,2.13
2023-07-08T19:11:41.453Z,2.60
2023-07-08T19:14:28.918Z,2.75
2023-07-08T19:17:15.528Z,2.58
2023-07-08T19:20:02.714Z,2.70
2023-07-08T19:22:52.815Z,2.55
2023-07-08T19:25:39.888Z,2.60
2023-07-08T19:28:27.080Z,2.45
2023-07-08T19:31:24.174Z,2.67
2023-07-08T19:34:13.515Z,2.67
2023-07-08T19:37:00.568Z,2.25
2023-07-08T19:39:49.175Z,2.80
2023-07-08T19:42:36.270Z,2.92
2023-07-08T19:45:25.289Z,2.58
2023-07-08T19:48:13.674Z,3.17
2023-07-08T19:51:00.811Z,2.85
2023-07-08T19:53:49.020Z,2.35
2023-07-08T19:56:37.518Z,3.05
2023-07-08T19:59:24.575Z,2.70
2023-07-08T20:02:15.764Z,2.53
2023-07-08T20:05:02.990Z,2.47
2023-07-08T20:07:50.047Z,3.05
2023-07-08T20:10:38.465Z,2.63
2023-07-08T20:13:29.091Z,3.00
2023-07-08T20:16:19.216Z,2.95
2023-07-08T20:19:06.591Z,3.25
2023-07-08T20:21:53.641Z,4.05
2023-07-08T20:24:40.558Z,2.70
2023-07-08T20:27:29.157Z,2.78
2023-07-08T20:30:26.871Z,2.63
2023-07-08T20:33:15.886Z,2.40
2023-07-08T20:36:03.714Z,2.72
2023-07-08T20:38:51.119Z,3.17
2023-07-08T20:41:37.806Z,3.10
2023-07-08T20:44:26.358Z,3.25
2023-07-08T20:47:17.019Z,3.30
2023-07-08T20:50:04.019Z,3.28
2023-07-08T20:52:51.632Z,3.17
2023-07-08T20:55:38.883Z,3.10
2023-07-08T20:58:28.508Z,3.40
2023-07-08T21:01:15.464Z,2.72
2023-07-08T21:04:04.220Z,2.88
2023-07-08T21:06:51.243Z,3.08
2023-07-08T21:09:37.934Z,2.83
2023-07-08T21:12:24.706Z,2.85
2023-07-08T21:15:12.261Z,3.20
2023-07-08T21:17:59.331Z,2.70
2023-07-08T21:20:48.126Z,4.05
2023-07-08T21:23:35.732Z,3.22
2023-07-08T21:26:26.032Z,3.15
2023-07-08T21:29:13.764Z,2.85
2023-07-08T21:32:01.126Z,2.70
2023-07-08T21:34:48.343Z,2.97
2023-07-08T21:37:36.738Z,3.03
2023-07-08T21:40:32.012Z,3.10
2023-07-08T21:43:21.594Z,3.03
2023-07-08T21:46:09.094Z,2.88
2023-07-08T21:48:56.096Z,3.13
2023-07-08T21:51:43.223Z,3.53
2023-07-08T21:54:31.793Z,3.53
2023-07-08T21:57:18.796Z,3.92
2023-07-08T22:00:12.103Z,4.60
2023-07-08T22:02:58.807Z,3.72
2023-07-08T22:05:46.243Z,2.95
2023-07-08T22:08:33.630Z,3.58
2023-07-08T22:11:27.993Z,3.15
2023-07-08T22:14:15.480Z,2.55
2023-07-08T22:17:10.833Z,3.83
2023-07-08T22:19:58.758Z,2.45
2023-07-08T22:22:46.006Z,3.08
2023-07-08T22:25:33.291Z,3.45
2023-07-08T22:28:22.122Z,4.28
2023-07-08T22:31:19.737Z,4.05
2023-07-08T22:34:13.375Z,3.47
2023-07-08T22:37:00.157Z,3.40
2023-07-08T22:39:47.334Z,2.90
2023-07-08T22:42:34.250Z,3.45
2023-07-08T22:45:22.811Z,3.55
2023-07-08T22:48:11.491Z,4.88
2023-07-08T22:51:03.364Z,3.37
2023-07-08T22:53:50.574Z,3.33
2023-07-08T22:56:37.757Z,3.42
2023-07-08T22:59:24.742Z,3.42
2023-07-08T23:02:14.814Z,3.45
2023-07-08T23:05:01.754Z,2.92
2023-07-08T23:07:48.897Z,3.05
2023-07-08T23:10:35.803Z,3.67
2023-07-08T23:13:35.051Z,3.57
2023-07-08T23:16:28.946Z,3.50
2023-07-08T23:19:17.205Z,3.50
2023-07-08T23:22:04.238Z,3.23
2023-07-08T23:24:51.310Z,3.03
2023-07-08T23:27:38.869Z,3.23
2023-07-08T23:30:25.969Z,3.60
2023-07-08T23:33:16.980Z,3.27
2023-07-08T23:36:07.637Z,3.13
2023-07-08T23:38:54.910Z,3.43
2023-07-08T23:41:44.994Z,3.13
2023-07-08T23:44:32.067Z,2.83
2023-07-08T23:47:23.173Z,3.00
2023-07-08T23:50:18.650Z,3.60
2023-07-08T23:53:07.280Z,3.87
2023-07-08T23:55:54.138Z,3.50
2023-07-08T23:58:43.174Z,3.00
